createdAt,value
2022-07-29T00:00:00.044Z,27.63
2022-07-29T00:01:02.171Z,27.63
2022-07-29T00:02:04.489Z,27.61
2022-07-29T00:03:06.735Z,27.62
2022-07-29T00:04:09.248Z,27.62
2022-07-29T00:05:11.689Z,27.63
2022-07-29T00:06:15.502Z,27.63
2022-07-29T00:07:19.399Z,27.63
2022-07-29T00:08:22.055Z,27.62
2022-07-29T00:09:26.452Z,27.63
2022-07-29T00:10:30.934Z,27.63
2022-07-29T00:11:33.315Z,27.61
2022-07-29T00:12:35.579Z,27.61
2022-07-29T00:13:38.541Z,27.62
2022-07-29T00:14:41.667Z,27.61
2022-07-29T00:15:46.358Z,27.62
2022-07-29T00:16:49.578Z,27.62
2022-07-29T00:17:51.926Z,27.61
2022-07-29T00:18:54.091Z,27.61
2022-07-29T00:19:56.526Z,27.62
2022-07-29T00:20:59.499Z,27.61
2022-07-29T00:22:02.068Z,27.61
2022-07-29T00:23:05.161Z,27.61
2022-07-29T00:24:08.347Z,27.61
2022-07-29T00:25:10.904Z,27.56
2022-07-29T00:26:15.163Z,27.55
2022-07-29T00:27:17.868Z,27.55
2022-07-29T00:28:20.169Z,27.61
2022-07-29T00:29:38.403Z,27.62
2022-07-29T00:30:27.618Z,27.61
2022-07-29T00:31:30.300Z,27.62
2022-07-29T00:32:33.287Z,27.62
2022-07-29T00:33:37.380Z,27.61
2022-07-29T00:34:40.147Z,27.61
2022-07-29T00:35:43.631Z,27.61
2022-07-29T00:36:49.254Z,27.62
2022-07-29T00:37:51.962Z,27.62
2022-07-29T00:38:54.600Z,27.61
2022-07-29T00:39:57.018Z,27.61
2022-07-29T00:41:00.251Z,27.61
2022-07-29T00:43:17.113Z,27.72
2022-07-29T00:44:21.468Z,27.63
2022-07-29T00:45:24.341Z,27.62
2022-07-29T00:46:27.413Z,27.61
2022-07-29T00:47:30.281Z,27.62
2022-07-29T00:48:32.530Z,27.61
2022-07-29T00:49:34.810Z,27.62
2022-07-29T00:50:37.994Z,27.61
2022-07-29T00:51:40.444Z,27.61
2022-07-29T00:52:42.822Z,27.62
2022-07-29T00:53:45.173Z,27.61
2022-07-29T00:54:47.433Z,27.61
2022-07-29T00:55:49.768Z,27.61
2022-07-29T00:56:55.126Z,27.61
2022-07-29T00:57:57.692Z,27.62
2022-07-29T00:59:00.066Z,27.60
2022-07-29T01:00:06.175Z,27.61
2022-07-29T01:01:08.616Z,27.62
2022-07-29T01:02:11.133Z,27.61
2022-07-29T01:03:14.657Z,27.61
2022-07-29T01:04:17.331Z,27.61
2022-07-29T01:05:21.512Z,27.62
2022-07-29T01:06:25.810Z,27.62
2022-07-29T01:07:28.173Z,27.61
2022-07-29T01:08:30.941Z,27.61
2022-07-29T01:09:42.223Z,27.61
2022-07-29T01:10:38.300Z,27.62
2022-07-29T01:11:41.530Z,27.61
2022-07-29T01:12:44.345Z,27.61
2022-07-29T01:13:46.742Z,27.61
2022-07-29T01:14:49.508Z,27.61
2022-07-29T01:17:13.536Z,27.71
2022-07-29T01:19:49.951Z,27.70
2022-07-29T01:21:30.729Z,27.58
2022-07-29T01:23:09.018Z,27.58
2022-07-29T01:24:33.615Z,27.57
2022-07-29T01:26:00.748Z,27.55
2022-07-29T01:27:22.268Z,27.53
2022-07-29T01:28:54.915Z,27.52
2022-07-29T01:29:58.632Z,27.50
2022-07-29T01:31:03.166Z,27.49
2022-07-29T01:32:20.294Z,27.48
2022-07-29T01:33:17.770Z,27.47
2022-07-29T01:35:46.295Z,27.46
2022-07-29T01:38:11.472Z,27.56
2022-07-29T01:39:29.572Z,27.45
2022-07-29T01:42:24.825Z,27.56
2022-07-29T01:45:03.640Z,27.45
2022-07-29T01:47:23.830Z,27.56
2022-07-29T01:49:51.850Z,27.55
2022-07-29T01:53:54.446Z,27.55
2022-07-29T01:54:59.155Z,27.46
2022-07-29T01:56:02.492Z,27.45
2022-07-29T01:57:05.676Z,27.45
2022-07-29T01:58:08.811Z,27.46
2022-07-29T01:59:11.721Z,27.46
2022-07-29T02:00:16.127Z,27.47
2022-07-29T02:01:18.664Z,27.47
2022-07-29T02:02:21.086Z,27.47
2022-07-29T02:03:23.500Z,27.47
2022-07-29T02:04:29.498Z,27.48
2022-07-29T02:05:30.826Z,27.48
2022-07-29T02:06:34.308Z,27.49
2022-07-29T02:07:37.119Z,27.49
2022-07-29T02:08:39.621Z,27.49
2022-07-29T02:09:41.893Z,27.49
2022-07-29T02:10:44.567Z,27.49
2022-07-29T02:11:49.938Z,27.49
2022-07-29T02:12:52.444Z,27.49
2022-07-29T02:13:55.296Z,27.49
2022-07-29T02:14:57.727Z,27.50
2022-07-29T02:16:00.238Z,27.50
2022-07-29T02:17:03.358Z,27.51
2022-07-29T02:18:13.314Z,27.51
2022-07-29T02:19:15.870Z,27.52
2022-07-29T02:20:18.509Z,27.52
2022-07-29T02:21:23.561Z,27.52
2022-07-29T02:22:26.593Z,27.52
2022-07-29T02:23:29.312Z,27.53
2022-07-29T02:24:31.684Z,27.51
2022-07-29T02:25:37.584Z,27.52
2022-07-29T02:26:40.940Z,27.52
2022-07-29T02:27:43.556Z,27.51
2022-07-29T02:28:45.815Z,27.50
2022-07-29T02:29:48.287Z,27.50
2022-07-29T02:30:51.167Z,27.50
2022-07-29T02:31:53.730Z,27.48
2022-07-29T02:32:56.606Z,27.49
2022-07-29T02:33:59.579Z,27.49
2022-07-29T02:35:02.035Z,27.49
2022-07-29T02:36:04.910Z,27.49
2022-07-29T02:38:21.609Z,27.60
2022-07-29T02:39:26.177Z,27.49
2022-07-29T02:40:30.239Z,27.50
2022-07-29T02:41:51.468Z,27.51
2022-07-29T02:42:54.465Z,27.49
2022-07-29T02:43:59.366Z,27.49
2022-07-29T02:45:02.588Z,27.49
2022-07-29T02:46:06.071Z,27.48
2022-07-29T02:47:22.703Z,27.49
2022-07-29T02:48:28.245Z,27.48
2022-07-29T02:49:58.666Z,27.48
2022-07-29T02:51:09.141Z,27.46
2022-07-29T02:52:30.232Z,27.47
2022-07-29T02:53:33.971Z,27.46
2022-07-29T02:56:02.683Z,27.53
2022-07-29T02:57:08.663Z,27.42
2022-07-29T02:58:25.449Z,27.40
2022-07-29T02:59:28.318Z,27.39
2022-07-29T03:00:34.166Z,27.38
2022-07-29T03:01:38.964Z,27.36
2022-07-29T03:02:43.084Z,27.36
2022-07-29T03:03:45.920Z,27.34
2022-07-29T03:04:49.078Z,27.34
2022-07-29T03:05:55.872Z,27.33
2022-07-29T03:07:01.230Z,27.33
2022-07-29T03:08:05.462Z,27.33
2022-07-29T03:09:12.888Z,27.33
2022-07-29T03:10:13.731Z,27.32
2022-07-29T03:11:17.336Z,27.33
2022-07-29T03:12:19.905Z,27.32
2022-07-29T03:13:22.864Z,27.31
2022-07-29T03:14:25.652Z,27.34
2022-07-29T03:15:29.000Z,27.33
2022-07-29T03:16:38.087Z,27.34
2022-07-29T03:17:38.774Z,27.35
2022-07-29T03:18:41.246Z,27.36
2022-07-29T03:19:43.708Z,27.36
2022-07-29T03:20:46.278Z,27.39
2022-07-29T03:21:48.737Z,27.39
2022-07-29T03:22:51.845Z,27.39
2022-07-29T03:23:55.092Z,27.40
2022-07-29T03:24:57.982Z,27.41
2022-07-29T03:26:00.383Z,27.40
2022-07-29T03:27:03.762Z,27.43
2022-07-29T03:28:07.555Z,27.44
2022-07-29T03:29:10.497Z,27.44
2022-07-29T03:30:18.299Z,27.45
2022-07-29T03:31:20.449Z,27.44
2022-07-29T03:32:25.244Z,27.45
2022-07-29T03:33:27.831Z,27.45
2022-07-29T03:34:30.099Z,27.46
2022-07-29T03:35:32.566Z,27.47
2022-07-29T03:36:35.847Z,27.48
2022-07-29T03:37:38.099Z,27.49
2022-07-29T03:38:40.453Z,27.49
2022-07-29T03:39:43.032Z,27.49
2022-07-29T03:40:52.041Z,27.50
2022-07-29T03:41:56.558Z,27.50
2022-07-29T03:42:59.449Z,27.49
2022-07-29T03:44:02.101Z,27.51
2022-07-29T03:45:07.881Z,27.51
2022-07-29T03:46:10.862Z,27.51
2022-07-29T03:47:14.197Z,27.52
2022-07-29T03:48:18.207Z,27.52
2022-07-29T03:49:20.772Z,27.53
2022-07-29T03:50:24.901Z,27.54
2022-07-29T03:51:33.143Z,27.54
2022-07-29T03:52:32.667Z,27.54
2022-07-29T03:53:35.035Z,27.53
2022-07-29T03:54:37.487Z,27.54
2022-07-29T03:56:54.333Z,27.66
2022-07-29T03:57:57.481Z,27.55
2022-07-29T03:59:00.168Z,27.55
2022-07-29T04:00:04.889Z,27.54
2022-07-29T04:01:08.498Z,27.54
2022-07-29T04:02:11.719Z,27.54
2022-07-29T04:03:15.321Z,27.54
2022-07-29T04:04:19.765Z,27.55
2022-07-29T04:05:22.512Z,27.54
2022-07-29T04:06:25.701Z,27.53
2022-07-29T04:07:28.108Z,27.52
2022-07-29T04:08:30.420Z,27.51
2022-07-29T04:09:32.660Z,27.50
2022-07-29T04:10:35.852Z,27.49
2022-07-29T04:12:01.510Z,27.47
2022-07-29T04:12:47.139Z,27.46
2022-07-29T04:13:50.458Z,27.45
2022-07-29T04:14:53.011Z,27.43
2022-07-29T04:15:55.789Z,27.42
2022-07-29T04:16:59.576Z,27.41
2022-07-29T04:18:01.904Z,27.39
2022-07-29T04:19:04.389Z,27.36
2022-07-29T04:20:09.201Z,27.35
2022-07-29T04:21:11.679Z,27.33
2022-07-29T04:22:14.031Z,27.33
2022-07-29T04:23:16.618Z,27.30
2022-07-29T04:24:19.445Z,27.30
2022-07-29T04:25:22.242Z,27.27
2022-07-29T04:26:26.038Z,27.27
2022-07-29T04:27:28.481Z,27.27
2022-07-29T04:28:31.727Z,27.25
2022-07-29T04:29:34.060Z,27.24
2022-07-29T04:30:37.178Z,27.22
2022-07-29T04:31:40.122Z,27.21
2022-07-29T04:32:42.609Z,27.20
2022-07-29T04:33:46.056Z,27.18
2022-07-29T04:34:48.515Z,27.19
2022-07-29T04:35:52.496Z,27.19
2022-07-29T04:36:56.028Z,27.19
2022-07-29T04:37:58.372Z,27.19
2022-07-29T04:39:00.718Z,27.17
2022-07-29T04:40:04.332Z,27.16
2022-07-29T04:41:06.889Z,27.16
2022-07-29T04:42:10.895Z,27.16
2022-07-29T04:43:14.302Z,27.17
2022-07-29T04:44:19.843Z,27.17
2022-07-29T04:45:23.641Z,27.17
2022-07-29T04:46:27.535Z,27.16
2022-07-29T04:47:30.172Z,27.16
2022-07-29T04:48:33.870Z,27.15
2022-07-29T04:49:38.984Z,27.14
2022-07-29T04:50:42.568Z,27.14
2022-07-29T04:51:46.485Z,27.15
2022-07-29T04:52:48.741Z,27.14
2022-07-29T04:53:51.107Z,27.13
2022-07-29T04:54:53.378Z,27.13
2022-07-29T04:55:56.340Z,27.13
2022-07-29T04:56:58.807Z,27.12
2022-07-29T04:58:01.511Z,27.13
2022-07-29T04:59:06.765Z,27.12
2022-07-29T05:00:12.157Z,27.09
2022-07-29T05:01:14.760Z,27.09
2022-07-29T05:02:17.200Z,27.09
2022-07-29T05:03:19.759Z,27.09
2022-07-29T05:04:22.159Z,27.08
2022-07-29T05:05:24.663Z,27.09
2022-07-29T05:06:28.980Z,27.08
2022-07-29T05:07:31.345Z,27.10
2022-07-29T05:08:33.511Z,27.11
2022-07-29T05:09:35.957Z,27.12
2022-07-29T05:10:38.279Z,27.15
2022-07-29T05:11:40.552Z,27.15
2022-07-29T05:12:43.026Z,27.16
2022-07-29T05:13:47.036Z,27.16
2022-07-29T05:14:50.532Z,27.16
2022-07-29T05:15:53.343Z,27.16
2022-07-29T05:16:55.833Z,27.16
2022-07-29T05:17:58.200Z,27.15
2022-07-29T05:19:01.210Z,27.14
2022-07-29T05:20:05.826Z,27.13
2022-07-29T05:21:08.200Z,27.14
2022-07-29T05:22:11.185Z,27.13
2022-07-29T05:23:14.754Z,27.13
2022-07-29T05:24:17.673Z,27.12
2022-07-29T05:25:20.501Z,27.13
2022-07-29T05:26:23.230Z,27.13
2022-07-29T05:27:25.532Z,27.13
2022-07-29T05:28:28.095Z,27.13
2022-07-29T05:29:44.754Z,27.13
2022-07-29T05:30:37.489Z,27.12
2022-07-29T05:31:40.828Z,27.12
2022-07-29T05:32:43.176Z,27.13
2022-07-29T05:33:45.644Z,27.13
2022-07-29T05:34:51.063Z,27.12
2022-07-29T05:35:52.247Z,27.13
2022-07-29T05:36:54.853Z,27.14
2022-07-29T05:37:57.344Z,27.16
2022-07-29T05:38:59.826Z,27.18
2022-07-29T05:40:04.370Z,27.19
2022-07-29T05:41:06.984Z,27.20
2022-07-29T05:42:10.080Z,27.20
2022-07-29T05:43:12.453Z,27.21
2022-07-29T05:44:15.764Z,27.22
2022-07-29T05:45:18.592Z,27.23
2022-07-29T05:46:21.961Z,27.23
2022-07-29T05:47:24.639Z,27.25
2022-07-29T05:48:27.929Z,27.25
2022-07-29T05:49:30.457Z,27.27
2022-07-29T05:50:32.786Z,27.28
2022-07-29T05:51:35.171Z,27.29
2022-07-29T05:52:37.616Z,27.30
2022-07-29T05:53:39.783Z,27.31
2022-07-29T05:54:42.193Z,27.32
2022-07-29T05:55:45.079Z,27.32
2022-07-29T05:56:48.704Z,27.34
2022-07-29T05:57:52.873Z,27.35
2022-07-29T05:58:55.160Z,27.36
2022-07-29T05:59:57.292Z,27.38
2022-07-29T06:01:00.367Z,27.41
2022-07-29T06:02:04.573Z,27.42
2022-07-29T06:03:07.553Z,27.44
2022-07-29T06:04:09.966Z,27.47
2022-07-29T06:05:17.130Z,27.48
2022-07-29T06:06:19.968Z,27.49
2022-07-29T06:07:23.388Z,27.50
2022-07-29T06:08:27.145Z,27.50
2022-07-29T06:09:31.706Z,27.50
2022-07-29T06:10:35.546Z,27.51
2022-07-29T06:11:37.871Z,27.51
2022-07-29T06:12:40.579Z,27.52
2022-07-29T06:13:43.044Z,27.53
2022-07-29T06:14:45.615Z,27.54
2022-07-29T06:15:47.938Z,27.55
2022-07-29T06:16:50.740Z,27.56
2022-07-29T06:18:00.838Z,27.57
2022-07-29T06:18:58.456Z,27.57
2022-07-29T06:20:01.265Z,27.59
2022-07-29T06:21:08.691Z,27.59
2022-07-29T06:22:12.628Z,27.61
2022-07-29T06:23:15.878Z,27.61
2022-07-29T06:24:18.591Z,27.61
2022-07-29T06:25:21.827Z,27.62
2022-07-29T06:26:30.852Z,27.62
2022-07-29T06:27:29.935Z,27.62
2022-07-29T06:28:33.078Z,27.60
2022-07-29T06:29:35.469Z,27.60
2022-07-29T06:30:38.638Z,27.54
2022-07-29T06:31:42.145Z,27.54
2022-07-29T06:32:44.738Z,27.61
2022-07-29T06:33:47.689Z,27.59
2022-07-29T06:34:50.637Z,27.59
2022-07-29T06:35:55.158Z,27.56
2022-07-29T06:36:59.517Z,27.54
2022-07-29T06:39:16.083Z,27.64
2022-07-29T06:40:21.022Z,27.52
2022-07-29T06:41:24.126Z,27.51
2022-07-29T06:42:26.857Z,27.51
2022-07-29T06:43:35.207Z,27.51
2022-07-29T06:44:37.566Z,27.51
2022-07-29T06:45:40.934Z,27.52
2022-07-29T06:46:43.924Z,27.52
2022-07-29T06:47:46.502Z,27.53
2022-07-29T06:48:50.566Z,27.54
2022-07-29T06:49:55.087Z,27.54
2022-07-29T06:50:58.351Z,27.55
2022-07-29T06:52:00.759Z,27.57
2022-07-29T06:53:03.383Z,27.56
2022-07-29T06:54:05.648Z,27.56
2022-07-29T06:55:08.786Z,27.55
2022-07-29T06:56:12.783Z,27.55
2022-07-29T06:57:15.188Z,27.55
2022-07-29T06:58:17.939Z,27.54
2022-07-29T06:59:30.770Z,27.54
2022-07-29T07:00:28.208Z,27.53
2022-07-29T07:01:31.316Z,27.54
2022-07-29T07:02:35.620Z,27.54
2022-07-29T07:03:38.573Z,27.54
2022-07-29T07:04:40.992Z,27.53
2022-07-29T07:05:43.876Z,27.53
2022-07-29T07:06:47.388Z,27.53
2022-07-29T07:07:49.659Z,27.54
2022-07-29T07:08:52.119Z,27.54
2022-07-29T07:09:55.100Z,27.56
2022-07-29T07:10:58.405Z,27.57
2022-07-29T07:12:00.748Z,27.57
2022-07-29T07:13:03.527Z,27.54
2022-07-29T07:14:06.008Z,27.51
2022-07-29T07:15:09.120Z,27.51
2022-07-29T07:16:12.149Z,27.50
2022-07-29T07:17:14.936Z,27.53
2022-07-29T07:18:17.995Z,27.54
2022-07-29T07:19:20.440Z,27.56
2022-07-29T07:20:22.801Z,27.58
2022-07-29T07:21:30.164Z,27.60
2022-07-29T07:22:35.706Z,27.63
2022-07-29T07:23:36.256Z,27.64
2022-07-29T07:24:39.434Z,27.66
2022-07-29T07:25:42.818Z,27.67
2022-07-29T07:26:45.571Z,27.68
2022-07-29T07:27:47.972Z,27.69
2022-07-29T07:28:50.518Z,27.71
2022-07-29T07:29:52.898Z,27.72
2022-07-29T07:30:56.271Z,27.73
2022-07-29T07:32:00.928Z,27.73
2022-07-29T07:33:02.984Z,27.73
2022-07-29T07:34:06.531Z,27.76
2022-07-29T07:35:09.710Z,27.75
2022-07-29T07:36:13.049Z,27.76
2022-07-29T07:37:16.513Z,27.76
2022-07-29T07:38:18.972Z,27.76
2022-07-29T07:39:21.313Z,27.76
2022-07-29T07:40:25.822Z,27.76
2022-07-29T07:41:32.417Z,27.78
2022-07-29T07:42:34.171Z,27.79
2022-07-29T07:43:36.547Z,27.80
2022-07-29T07:45:03.747Z,27.79
2022-07-29T07:45:45.014Z,27.77
2022-07-29T07:46:47.506Z,27.76
2022-07-29T07:47:49.834Z,27.75
2022-07-29T07:48:52.694Z,27.75
2022-07-29T07:49:55.190Z,27.76
2022-07-29T07:50:58.439Z,27.78
2022-07-29T07:52:01.118Z,27.79
2022-07-29T07:53:04.648Z,27.79
2022-07-29T07:54:08.204Z,27.80
2022-07-29T07:55:10.753Z,27.80
2022-07-29T07:56:13.599Z,27.80
2022-07-29T07:57:16.927Z,27.80
2022-07-29T07:58:19.897Z,27.80
2022-07-29T07:59:22.430Z,27.80
2022-07-29T08:00:25.952Z,27.80
2022-07-29T08:01:30.878Z,27.80
2022-07-29T08:02:35.443Z,27.81
2022-07-29T08:03:39.197Z,27.80
2022-07-29T08:04:41.490Z,27.79
2022-07-29T08:05:44.137Z,27.80
2022-07-29T08:06:47.086Z,27.78
2022-07-29T08:07:51.397Z,27.74
2022-07-29T08:08:56.244Z,27.75
2022-07-29T08:09:57.868Z,27.72
2022-07-29T08:11:03.264Z,27.70
2022-07-29T08:12:06.074Z,27.70
2022-07-29T08:13:09.026Z,27.69
2022-07-29T08:14:11.508Z,27.69
2022-07-29T08:15:15.736Z,27.70
2022-07-29T08:16:20.366Z,27.71
2022-07-29T08:17:22.898Z,27.72
2022-07-29T08:18:30.073Z,27.73
2022-07-29T08:19:32.637Z,27.74
2022-07-29T08:20:36.039Z,27.73
2022-07-29T08:21:39.531Z,27.73
2022-07-29T08:22:43.108Z,27.74
2022-07-29T08:23:48.807Z,27.74
2022-07-29T08:24:49.774Z,27.75
2022-07-29T08:25:52.100Z,27.75
2022-07-29T08:26:57.057Z,27.75
2022-07-29T08:28:00.956Z,27.76
2022-07-29T08:29:03.932Z,27.78
2022-07-29T08:30:08.138Z,27.79
2022-07-29T08:31:10.602Z,27.80
2022-07-29T08:32:13.302Z,27.80
2022-07-29T08:33:15.615Z,27.81
2022-07-29T08:34:18.923Z,27.80
2022-07-29T08:35:23.854Z,27.82
2022-07-29T08:36:27.937Z,27.82
2022-07-29T08:37:30.755Z,27.83
2022-07-29T08:38:33.254Z,27.83
2022-07-29T08:39:35.846Z,27.83
2022-07-29T08:40:39.525Z,27.84
2022-07-29T08:41:56.752Z,27.85
2022-07-29T08:42:46.051Z,27.85
2022-07-29T08:43:50.436Z,27.85
2022-07-29T08:44:52.990Z,27.87
2022-07-29T08:45:55.417Z,27.86
2022-07-29T08:46:59.047Z,27.87
2022-07-29T08:48:01.951Z,27.89
2022-07-29T08:49:04.305Z,27.88
2022-07-29T08:50:08.479Z,27.87
2022-07-29T08:51:20.259Z,27.86
2022-07-29T08:52:24.964Z,27.85
2022-07-29T08:53:27.372Z,27.82
2022-07-29T08:54:30.520Z,27.82
2022-07-29T08:55:32.842Z,27.81
2022-07-29T08:56:36.677Z,27.80
2022-07-29T08:57:39.350Z,27.81
2022-07-29T08:58:43.542Z,27.83
2022-07-29T08:59:48.167Z,27.85
2022-07-29T09:00:55.541Z,27.85
2022-07-29T09:01:59.043Z,27.86
2022-07-29T09:03:02.960Z,27.86
2022-07-29T09:04:08.536Z,27.87
2022-07-29T09:05:10.994Z,27.86
2022-07-29T09:06:16.841Z,27.86
2022-07-29T09:07:19.833Z,27.88
2022-07-29T09:08:22.830Z,27.87
2022-07-29T09:09:25.242Z,27.86
2022-07-29T09:10:29.104Z,27.87
2022-07-29T09:11:33.294Z,27.87
2022-07-29T09:12:38.202Z,27.89
2022-07-29T09:13:41.192Z,27.89
2022-07-29T09:14:43.567Z,27.89
2022-07-29T09:15:46.239Z,27.90
2022-07-29T09:16:54.734Z,27.89
2022-07-29T09:17:57.373Z,27.89
2022-07-29T09:18:59.436Z,27.90
2022-07-29T09:21:28.313Z,28.01
2022-07-29T09:22:30.907Z,27.92
2022-07-29T09:23:33.181Z,27.92
2022-07-29T09:24:41.785Z,27.91
2022-07-29T09:25:44.299Z,27.92
2022-07-29T09:26:46.798Z,27.93
2022-07-29T09:29:10.343Z,28.06
2022-07-29T09:30:14.501Z,27.98
2022-07-29T09:31:17.320Z,28.00
2022-07-29T09:32:21.154Z,28.00
2022-07-29T09:33:24.139Z,28.00
2022-07-29T09:34:28.249Z,28.01
2022-07-29T09:35:30.919Z,28.01
2022-07-29T09:36:42.084Z,28.03
2022-07-29T09:37:44.873Z,28.02
2022-07-29T09:38:50.922Z,28.02
2022-07-29T09:39:53.433Z,28.02
2022-07-29T09:42:12.340Z,28.13
2022-07-29T09:43:14.579Z,28.03
2022-07-29T09:44:17.563Z,28.02
2022-07-29T09:46:59.485Z,28.13
2022-07-29T09:48:16.887Z,28.03
2022-07-29T09:49:19.373Z,28.03
2022-07-29T09:50:23.122Z,28.03
2022-07-29T09:51:37.832Z,28.03
2022-07-29T09:52:30.383Z,28.02
2022-07-29T09:54:46.397Z,28.12
2022-07-29T09:55:51.853Z,28.02
2022-07-29T09:56:55.291Z,28.01
2022-07-29T09:59:29.789Z,28.12
2022-07-29T10:00:32.752Z,28.02
2022-07-29T10:01:36.416Z,28.01
2022-07-29T10:02:40.103Z,28.01
2022-07-29T10:03:52.607Z,28.02
2022-07-29T10:04:54.920Z,28.02
2022-07-29T10:06:11.621Z,28.02
2022-07-29T10:07:14.083Z,28.02
2022-07-29T10:08:19.633Z,28.02
2022-07-29T10:09:22.469Z,28.01
2022-07-29T10:10:31.098Z,28.01
2022-07-29T10:11:48.082Z,28.01
2022-07-29T10:12:56.874Z,28.01
2022-07-29T10:13:59.914Z,28.01
2022-07-29T10:15:03.121Z,28.01
2022-07-29T10:16:07.579Z,28.01
2022-07-29T10:17:10.601Z,28.01
2022-07-29T10:18:14.089Z,28.02
2022-07-29T10:19:16.394Z,28.01
2022-07-29T10:20:23.265Z,28.01
2022-07-29T10:21:35.752Z,28.01
2022-07-29T10:22:52.488Z,28.00
2022-07-29T10:23:46.875Z,28.00
2022-07-29T10:24:42.654Z,28.00
2022-07-29T10:25:46.749Z,28.00
2022-07-29T10:26:50.535Z,28.00
2022-07-29T10:27:52.949Z,28.00
2022-07-29T10:28:56.143Z,28.00
2022-07-29T10:29:59.128Z,28.00
2022-07-29T10:31:08.037Z,27.99
2022-07-29T10:32:14.598Z,28.00
2022-07-29T10:33:43.657Z,28.00
2022-07-29T10:35:09.217Z,28.00
2022-07-29T10:36:32.861Z,27.98
2022-07-29T10:39:44.486Z,28.04
2022-07-29T10:41:07.081Z,27.93
2022-07-29T10:42:29.662Z,27.90
2022-07-29T10:43:30.184Z,27.87
2022-07-29T10:44:34.964Z,27.86
2022-07-29T10:45:37.928Z,27.86
2022-07-29T10:46:42.431Z,27.85
2022-07-29T10:47:47.368Z,27.86
2022-07-29T10:49:11.214Z,27.86
2022-07-29T10:51:49.110Z,27.97
2022-07-29T10:52:53.965Z,27.85
2022-07-29T10:53:57.080Z,27.85
2022-07-29T10:55:00.934Z,27.85
2022-07-29T10:56:06.354Z,27.85
2022-07-29T10:57:25.803Z,27.86
2022-07-29T10:58:26.947Z,27.87
2022-07-29T10:59:36.185Z,27.88
2022-07-29T11:00:35.990Z,27.90
2022-07-29T11:01:39.428Z,27.91
2022-07-29T11:02:45.566Z,27.92
2022-07-29T11:03:49.456Z,27.93
2022-07-29T11:04:57.121Z,27.93
2022-07-29T11:06:02.187Z,27.96
2022-07-29T11:07:08.401Z,27.95
2022-07-29T11:08:19.779Z,27.96
2022-07-29T11:09:20.134Z,27.97
2022-07-29T11:10:31.020Z,27.98
2022-07-29T11:11:32.915Z,27.98
2022-07-29T11:12:40.980Z,27.99
2022-07-29T11:13:49.755Z,27.99
2022-07-29T11:14:56.620Z,27.99
2022-07-29T11:15:59.133Z,27.99
2022-07-29T11:17:06.472Z,27.99
2022-07-29T11:18:15.075Z,28.00
2022-07-29T11:19:26.235Z,28.01
2022-07-29T11:20:39.622Z,28.00
2022-07-29T11:21:53.943Z,27.99
2022-07-29T11:22:50.086Z,27.98
2022-07-29T11:23:52.636Z,27.97
2022-07-29T11:26:26.981Z,28.06
2022-07-29T11:27:33.818Z,27.96
2022-07-29T11:28:40.483Z,27.96
2022-07-29T11:29:54.516Z,27.94
2022-07-29T11:30:58.300Z,27.97
2022-07-29T11:33:54.570Z,28.09
2022-07-29T11:34:36.322Z,27.99
2022-07-29T11:35:39.935Z,27.99
2022-07-29T11:38:28.788Z,28.12
2022-07-29T11:39:36.891Z,28.02
2022-07-29T11:40:36.463Z,28.03
2022-07-29T11:41:39.542Z,28.02
2022-07-29T11:42:44.540Z,28.03
2022-07-29T11:43:52.257Z,28.02
2022-07-29T11:45:43.524Z,28.02
2022-07-29T11:46:15.414Z,28.03
2022-07-29T11:47:20.973Z,28.02
2022-07-29T11:48:29.099Z,28.02
2022-07-29T11:49:32.562Z,28.01
2022-07-29T11:51:56.171Z,28.09
2022-07-29T11:52:59.378Z,28.00
2022-07-29T11:54:05.101Z,28.01
2022-07-29T11:55:09.696Z,28.01
2022-07-29T11:56:12.910Z,28.01
2022-07-29T11:57:18.232Z,28.02
2022-07-29T11:58:26.180Z,28.02
2022-07-29T11:59:33.583Z,28.03
2022-07-29T12:00:37.673Z,28.04
2022-07-29T12:03:08.438Z,28.06
2022-07-29T12:05:36.910Z,28.19
2022-07-29T12:06:36.644Z,28.09
2022-07-29T12:07:40.983Z,28.10
2022-07-29T12:08:44.764Z,28.10
2022-07-29T12:09:51.301Z,28.10
2022-07-29T12:10:55.229Z,28.11
2022-07-29T12:12:01.863Z,28.12
2022-07-29T12:13:02.282Z,28.11
2022-07-29T12:14:04.677Z,28.12
2022-07-29T12:15:17.001Z,28.12
2022-07-29T12:16:25.971Z,28.12
2022-07-29T12:17:35.166Z,28.13
2022-07-29T12:18:37.596Z,28.14
2022-07-29T12:19:43.310Z,28.14
2022-07-29T12:20:48.203Z,28.14
2022-07-29T12:21:59.782Z,28.15
2022-07-29T12:22:58.046Z,28.15
2022-07-29T12:24:08.652Z,28.15
2022-07-29T12:25:32.457Z,28.16
2022-07-29T12:26:25.590Z,28.16
2022-07-29T12:27:18.690Z,28.17
2022-07-29T12:28:26.585Z,28.17
2022-07-29T12:29:34.700Z,28.17
2022-07-29T12:30:38.656Z,28.17
2022-07-29T12:31:44.011Z,28.18
2022-07-29T12:32:48.108Z,28.17
2022-07-29T12:33:54.114Z,28.18
2022-07-29T12:34:57.666Z,28.18
2022-07-29T12:36:11.770Z,28.18
2022-07-29T12:37:06.990Z,28.18
2022-07-29T12:38:12.076Z,28.19
2022-07-29T12:39:19.395Z,28.18
2022-07-29T12:40:24.716Z,28.19
2022-07-29T12:41:30.162Z,28.19
2022-07-29T12:42:32.894Z,28.19
2022-07-29T12:43:35.256Z,28.20
2022-07-29T12:44:47.875Z,28.19
2022-07-29T12:47:04.591Z,28.29
2022-07-29T12:48:08.262Z,28.17
2022-07-29T12:49:12.208Z,28.17
2022-07-29T12:50:16.976Z,28.17
2022-07-29T12:51:19.551Z,28.17
2022-07-29T12:52:33.486Z,28.18
2022-07-29T12:53:36.616Z,28.18
2022-07-29T12:54:43.164Z,28.19
2022-07-29T12:55:47.562Z,28.18
2022-07-29T12:56:54.488Z,28.17
2022-07-29T12:57:56.808Z,28.18
2022-07-29T12:58:59.071Z,28.17
2022-07-29T13:00:07.241Z,28.17
2022-07-29T13:01:16.940Z,28.16
2022-07-29T13:02:22.130Z,28.16
2022-07-29T13:03:26.434Z,28.17
2022-07-29T13:04:31.060Z,28.16
2022-07-29T13:05:48.845Z,28.15
2022-07-29T13:06:51.056Z,28.16
2022-07-29T13:07:55.070Z,28.16
2022-07-29T13:09:12.832Z,28.15
2022-07-29T13:10:17.114Z,28.16
2022-07-29T13:11:39.041Z,28.16
2022-07-29T13:13:05.148Z,28.17
2022-07-29T13:14:09.251Z,28.17
2022-07-29T13:15:15.284Z,28.16
2022-07-29T13:16:20.178Z,28.16
2022-07-29T13:17:23.296Z,28.15
2022-07-29T13:18:31.372Z,28.16
2022-07-29T13:19:35.805Z,28.15
2022-07-29T13:20:39.492Z,28.16
2022-07-29T13:21:43.136Z,28.16
2022-07-29T13:22:49.192Z,28.16
2022-07-29T13:23:51.639Z,28.17
2022-07-29T13:24:58.063Z,28.17
2022-07-29T13:26:10.603Z,28.18
2022-07-29T13:27:15.273Z,28.19
2022-07-29T13:28:18.257Z,28.19
2022-07-29T13:29:20.883Z,28.20
2022-07-29T13:30:27.018Z,28.21
2022-07-29T13:31:30.688Z,28.22
2022-07-29T13:32:34.157Z,28.23
2022-07-29T13:33:36.476Z,28.24
2022-07-29T13:34:39.184Z,28.24
2022-07-29T13:35:42.735Z,28.24
2022-07-29T13:36:46.267Z,28.25
2022-07-29T13:37:48.764Z,28.25
2022-07-29T13:38:52.983Z,28.27
2022-07-29T13:39:56.062Z,28.27
2022-07-29T13:41:01.040Z,28.26
2022-07-29T13:42:10.749Z,28.26
2022-07-29T13:43:11.583Z,28.27
2022-07-29T13:44:14.068Z,28.28
2022-07-29T13:45:16.424Z,28.27
2022-07-29T13:46:20.417Z,28.29
2022-07-29T13:47:23.066Z,28.29
2022-07-29T13:48:27.284Z,28.31
2022-07-29T13:49:29.672Z,28.32
2022-07-29T13:50:33.255Z,28.33
2022-07-29T13:51:35.923Z,28.33
2022-07-29T13:52:39.132Z,28.34
2022-07-29T13:53:41.921Z,28.35
2022-07-29T13:54:44.398Z,28.35
2022-07-29T13:55:47.760Z,28.36
2022-07-29T13:56:51.412Z,28.37
2022-07-29T13:57:54.905Z,28.38
2022-07-29T13:58:57.360Z,28.38
2022-07-29T14:00:00.472Z,28.39
2022-07-29T14:01:03.866Z,28.39
2022-07-29T14:02:07.939Z,28.41
2022-07-29T14:03:10.247Z,28.41
2022-07-29T14:04:29.749Z,28.42
2022-07-29T14:05:40.521Z,28.41
2022-07-29T14:06:46.265Z,28.42
2022-07-29T14:07:54.135Z,28.42
2022-07-29T14:08:56.511Z,28.42
2022-07-29T14:10:00.212Z,28.43
2022-07-29T14:11:02.671Z,28.43
2022-07-29T14:12:05.960Z,28.43
2022-07-29T14:13:19.692Z,28.43
2022-07-29T14:14:12.838Z,28.44
2022-07-29T14:15:16.144Z,28.46
2022-07-29T14:16:21.086Z,28.46
2022-07-29T14:17:23.519Z,28.47
2022-07-29T14:18:26.690Z,28.48
2022-07-29T14:19:30.164Z,28.48
2022-07-29T14:20:36.224Z,28.49
2022-07-29T14:21:39.508Z,28.50
2022-07-29T14:22:42.660Z,28.50
2022-07-29T14:23:47.393Z,28.51
2022-07-29T14:24:50.057Z,28.53
2022-07-29T14:25:52.529Z,28.53
2022-07-29T14:26:57.615Z,28.54
2022-07-29T14:28:00.226Z,28.56
2022-07-29T14:29:02.516Z,28.56
2022-07-29T14:30:06.760Z,28.59
2022-07-29T14:31:09.258Z,28.60
2022-07-29T14:32:11.867Z,28.60
2022-07-29T14:33:14.495Z,28.61